Time;durP1;ratioP1;P1;durP2;ratioP2;P2;SDS_P1;SDS_P2;PMS_P1;PMS_P2;Temp;Humidity;BMP_temperature;BMP_pressure;BME280_temperature;BME280_humidity;BME280_pressure;Samples;Min_cycle;Max_cycle;Signal;HPM_P1;HPM_P2
2022/08/10 00:00:30;;;;;;;18.77;7.03;;;21.70;99.90;;;;;;5973523;24;20516;-76
2022/08/10 00:02:58;;;;;;;16.88;8.68;;;19.00;99.90;;;;;;5973431;24;20623;-76
2022/08/10 00:05:25;;;;;;;16.95;8.40;;;22.10;99.90;;;;;;5973189;24;20008;-75
2022/08/10 00:07:51;;;;;;;20.85;7.70;;;22.70;99.90;;;;;;5973872;24;20032;-75
2022/08/10 00:10:20;;;;;;;24.08;8.95;;;22.30;99.90;;;;;;5970413;24;20616;-78
2022/08/10 00:12:46;;;;;;;20.05;8.57;;;22.40;99.90;;;;;;5971112;24;19996;-74
2022/08/10 00:15:16;;;;;;;19.50;7.57;;;22.70;99.90;;;;;;5966753;24;20006;-82
2022/08/10 00:17:42;;;;;;;21.90;8.85;;;20.80;99.90;;;;;;5968458;24;20039;-76
2022/08/10 00:20:09;;;;;;;21.08;7.72;;;22.70;99.90;;;;;;5967559;24;20020;-75
2022/08/10 00:22:35;;;;;;;20.85;9.45;;;22.40;99.90;;;;;;5967662;24;20075;-74
2022/08/10 00:25:02;;;;;;;17.92;7.88;;;22.40;99.90;;;;;;5969063;24;20000;-82
2022/08/10 00:27:28;;;;;;;17.58;7.55;;;22.60;99.90;;;;;;5970125;24;20195;-74
2022/08/10 00:29:54;;;;;;;20.08;8.73;;;22.50;99.90;;;;;;5968873;24;20012;-75
2022/08/10 00:32:23;;;;;;;21.73;8.60;;;22.70;99.90;;;;;;5944188;24;20095;-82
2022/08/10 00:34:49;;;;;;;19.63;8.45;;;22.50;99.90;;;;;;5943956;24;20000;-76
2022/08/10 00:37:16;;;;;;;17.02;7.53;;;22.50;99.90;;;;;;5968593;23;20008;-78
2022/08/10 00:39:42;;;;;;;18.05;8.05;;;22.10;99.90;;;;;;5968231;24;20000;-76
2022/08/10 00:42:09;;;;;;;21.85;9.27;;;22.60;99.90;;;;;;5947699;24;20037;-75
2022/08/10 00:44:40;;;;;;;19.02;7.60;;;22.50;99.90;;;;;;5951452;24;20609;-73
2022/08/10 00:47:07;;;;;;;19.98;7.95;;;22.60;99.90;;;;;;5975566;24;20027;-74
2022/08/10 00:49:33;;;;;;;20.63;9.20;;;22.90;99.90;;;;;;5974798;24;20075;-75
2022/08/10 00:52:00;;;;;;;21.25;9.02;;;22.90;99.90;;;;;;5973253;24;20095;-78
2022/08/10 00:54:27;;;;;;;20.83;7.88;;;22.50;99.90;;;;;;5971023;24;20008;-75
2022/08/10 00:56:53;;;;;;;19.55;8.60;;;22.30;99.90;;;;;;5969708;24;20016;-74
2022/08/10 00:59:19;;;;;;;18.67;8.30;;;22.40;99.90;;;;;;5968618;24;20017;-83
2022/08/10 01:01:45;;;;;;;22.20;8.63;;;24.70;99.90;;;;;;5969851;24;20016;-77
2022/08/10 01:04:11;;;;;;;20.42;9.32;;;21.90;99.90;;;;;;5968154;24;20278;-81
2022/08/10 01:06:55;;;;;;;19.63;8.27;;;21.80;99.90;;;;;;5967561;24;20044;-75
2022/08/10 01:09:34;;;;;;;21.42;9.00;;;21.70;99.90;;;;;;5967167;24;20019;-74
2022/08/10 01:12:09;;;;;;;25.50;8.90;;;21.40;99.90;;;;;;5967529;24;20619;-78
2022/08/10 01:14:48;;;;;;;17.40;7.68;;;21.30;99.90;;;;;;5965980;24;20001;-75
2022/08/10 01:17:20;;;;;;;22.42;9.73;;;21.50;99.90;;;;;;5966211;24;20008;-76
2022/08/10 01:19:59;;;;;;;18.65;7.47;;;21.60;99.90;;;;;;5966477;24;20016;-81
2022/08/10 01:22:42;;;;;;;22.45;8.80;;;21.40;99.90;;;;;;5966413;24;20012;-74
2022/08/10 01:25:08;;;;;;;;;;;21.50;99.90;;;;;;5967726;24;20626;-75
2022/08/10 01:28:18;;;;;;;18.33;8.45;;;21.10;99.90;;;;;;5941670;24;19989;-75
2022/08/10 01:30:48;;;;;;;19.42;6.70;;;19.90;99.90;;;;;;5853557;24;20014;-82
2022/08/10 01:33:35;;;;;;;19.52;8.48;;;21.30;99.90;;;;;;5852993;24;20055;-74
2022/08/10 01:36:18;;;;;;;23.50;9.18;;;21.40;99.90;;;;;;5853364;24;20078;-74
2022/08/10 01:38:47;;;;;;;20.92;7.53;;;21.60;99.90;;;;;;5833152;24;20078;-74
2022/08/10 01:41:19;;;;;;;19.05;8.80;;;21.80;99.90;;;;;;5853316;24;20048;-75
2022/08/10 01:44:10;;;;;;;23.45;7.57;;;22.00;99.90;;;;;;5852671;24;20568;-74
2022/08/10 01:46:38;;;;;;;20.08;8.13;;;22.00;99.90;;;;;;5852915;24;20627;-74
2022/08/10 01:49:08;;;;;;;20.30;8.63;;;22.00;99.90;;;;;;5852110;24;20045;-74
2022/08/10 01:51:45;;;;;;;23.52;9.45;;;23.80;99.90;;;;;;5851845;24;20014;-75
2022/08/10 01:54:13;;;;;;;19.27;7.50;;;21.80;99.90;;;;;;5852153;24;20014;-74
2022/08/10 01:56:44;;;;;;;16.90;8.32;;;21.90;99.90;;;;;;5852003;24;20630;-74
2022/08/10 01:59:19;;;;;;;17.55;8.13;;;22.00;99.90;;;;;;5830791;24;20017;-77
2022/08/10 02:01:48;;;;;;;18.00;8.75;;;18.90;99.90;;;;;;5852313;24;20636;-81
2022/08/10 02:04:18;;;;;;;20.98;8.80;;;22.10;99.90;;;;;;5883710;24;20051;-78
2022/08/10 02:06:50;;;;;;;16.13;7.47;;;22.20;99.90;;;;;;5965691;24;20023;-85
2022/08/10 02:09:27;;;;;;;20.73;8.35;;;22.30;99.90;;;;;;5965668;24;20091;-74
2022/08/10 02:11:56;;;;;;;17.80;7.78;;;22.30;99.90;;;;;;5941375;24;20108;-75
2022/08/10 02:14:27;;;;;;;19.08;7.40;;;22.40;99.90;;;;;;5966461;24;20009;-74
2022/08/10 02:16:53;;;;;;;17.00;8.02;;;22.40;99.90;;;;;;5966496;24;20013;-73
2022/08/10 02:19:23;;;;;;;22.92;9.20;;;22.30;99.90;;;;;;5966527;24;20089;-87
2022/08/10 02:21:52;;;;;;;20.08;8.77;;;22.40;99.90;;;;;;5941610;24;20468;-73
2022/08/10 02:24:19;;;;;;;20.40;8.90;;;21.10;99.90;;;;;;5966389;24;20012;-77
2022/08/10 02:26:47;;;;;;;22.08;10.43;;;22.30;99.90;;;;;;5942241;24;20259;-74
2022/08/10 02:29:15;;;;;;;21.00;8.73;;;22.30;99.90;;;;;;5965405;24;20067;-86
2022/08/10 02:31:43;;;;;;;20.42;9.75;;;22.30;99.90;;;;;;5965796;24;20026;-74
2022/08/10 02:34:12;;;;;;;20.58;9.57;;;22.30;99.90;;;;;;5966698;24;20083;-84
2022/08/10 02:36:43;;;;;;;19.20;8.18;;;21.50;99.90;;;;;;5941469;24;20261;-74
2022/08/10 02:39:10;;;;;;;19.35;8.48;;;22.30;99.90;;;;;;5967361;24;20700;-74
2022/08/10 02:41:51;;;;;;;22.20;9.30;;;22.20;99.90;;;;;;5968010;24;20044;-73
2022/08/10 02:44:26;;;;;;;20.42;9.02;;;22.30;99.90;;;;;;5968545;24;19996;-73
2022/08/10 02:47:01;;;;;;;20.15;8.90;;;22.20;99.90;;;;;;5968333;24;20004;-74
2022/08/10 02:49:37;;;;;;;21.52;8.55;;;22.10;99.90;;;;;;5966943;24;20013;-73
2022/08/10 02:52:18;;;;;;;18.15;8.45;;;21.90;99.90;;;;;;5966776;24;20005;-85
2022/08/10 02:54:54;;;;;;;20.70;9.18;;;21.60;99.90;;;;;;5965926;24;20084;-74
2022/08/10 02:57:25;;;;;;;21.80;9.73;;;21.60;99.90;;;;;;5965612;24;20506;-79
2022/08/10 02:59:56;;;;;;;20.95;8.25;;;21.60;99.90;;;;;;5940697;24;20004;-80
2022/08/10 03:02:29;;;;;;;26.55;9.43;;;21.40;99.90;;;;;;5966752;24;20012;-75
2022/08/10 03:05:01;;;;;;;21.25;8.88;;;21.20;99.90;;;;;;5967351;24;20001;-77
2022/08/10 03:07:34;;;;;;;24.60;8.73;;;20.80;99.90;;;;;;5945726;24;20107;-76
2022/08/10 03:10:02;;;;;;;23.45;8.88;;;20.40;99.90;;;;;;5944594;24;20004;-83
2022/08/10 03:12:28;;;;;;;22.60;9.43;;;20.20;99.90;;;;;;5942467;24;20703;-76
2022/08/10 03:14:56;;;;;;;22.35;10.80;;;20.00;99.90;;;;;;5967305;24;20008;-88
2022/08/10 03:17:22;;;;;;;23.52;9.65;;;19.90;99.90;;;;;;5966393;24;20079;-73
2022/08/10 03:20:07;;;;;;;23.77;10.77;;;19.80;99.90;;;;;;5966859;24;20020;-78
2022/08/10 03:23:06;;;;;;;19.95;9.32;;;19.60;99.90;;;;;;5979533;23;20115;-84
2022/08/10 03:25:36;;;;;;;27.33;11.13;;;22.40;99.90;;;;;;5971058;23;20067;-74
2022/08/10 03:28:08;;;;;;;28.77;10.90;;;19.50;99.90;;;;;;5996963;23;20533;-80
2022/08/10 03:30:35;;;;;;;23.70;10.03;;;19.50;99.90;;;;;;5974235;23;20059;-74
2022/08/10 03:33:06;;;;;;;17.23;8.32;;;19.70;99.90;;;;;;5999447;23;20007;-73
2022/08/10 03:35:32;;;;;;;26.23;10.98;;;19.70;99.90;;;;;;5993983;23;20107;-73
2022/08/10 03:37:59;;;;;;;20.48;8.55;;;19.60;99.90;;;;;;5967577;24;20001;-75
2022/08/10 03:40:28;;;;;;;25.60;9.60;;;19.60;99.90;;;;;;5942660;24;20530;-75
2022/08/10 03:42:57;;;;;;;21.42;8.90;;;19.10;99.90;;;;;;5968245;24;20020;-73
2022/08/10 03:45:24;;;;;;;20.65;8.73;;;17.60;99.90;;;;;;5972971;24;20008;-71
2022/08/10 03:47:53;;;;;;;21.77;8.07;;;19.60;99.90;;;;;;5974411;24;20011;-73
2022/08/10 03:50:20;;;;;;;21.02;8.98;;;19.80;99.90;;;;;;5974590;24;20008;-72
2022/08/10 03:52:47;;;;;;;21.52;8.70;;;19.90;99.90;;;;;;5973552;24;20019;-73
2022/08/10 03:55:13;;;;;;;27.48;11.85;;;20.00;99.90;;;;;;5975269;24;20053;-72
2022/08/10 03:57:39;;;;;;;26.73;10.55;;;20.10;99.90;;;;;;5975448;24;20095;-80
2022/08/10 04:00:07;;;;;;;24.38;10.05;;;20.20;99.90;;;;;;5973192;24;20075;-74
2022/08/10 04:02:34;;;;;;;21.88;9.02;;;18.60;99.90;;;;;;5972273;24;20046;-73
2022/08/10 04:05:00;;;;;;;21.83;10.18;;;20.30;99.90;;;;;;5973276;24;20000;-80
2022/08/10 04:07:26;;;;;;;20.90;7.75;;;;;;;;;;5972540;24;20015;-72
2022/08/10 04:09:52;;;;;;;28.00;11.18;;;20.50;99.90;;;;;;5975071;24;20587;-73
2022/08/10 04:12:19;;;;;;;21.70;9.93;;;20.60;99.90;;;;;;5947534;24;20008;-72
2022/08/10 04:14:45;;;;;;;19.67;7.90;;;20.60;99.90;;;;;;5973494;24;20004;-73
2022/08/10 04:17:11;;;;;;;23.33;9.60;;;21.00;99.90;;;;;;5947758;24;20031;-79
2022/08/10 04:19:47;;;;;;;23.08;9.05;;;20.50;99.90;;;;;;5974407;24;20011;-72
2022/08/10 04:22:17;;;;;;;23.08;8.98;;;20.90;99.90;;;;;;5973960;24;20028;-73
2022/08/10 04:24:45;;;;;;;20.10;9.13;;;20.60;99.90;;;;;;5972042;23;20027;-73
2022/08/10 04:27:13;;;;;;;20.60;8.65;;;20.50;99.90;;;;;;5972604;24;20011;-74
2022/08/10 04:29:39;;;;;;;22.25;8.55;;;20.60;99.90;;;;;;5947556;24;20072;-73
2022/08/10 04:32:09;;;;;;;24.00;9.63;;;20.00;99.90;;;;;;5972061;24;20015;-72
2022/08/10 04:34:35;;;;;;;20.08;9.80;;;;;;;;;;5972660;24;20008;-74
2022/08/10 04:37:05;;;;;;;27.88;10.68;;;20.70;99.90;;;;;;5971495;23;20265;-74
2022/08/10 04:39:31;;;;;;;21.95;8.20;;;21.00;99.90;;;;;;5969532;24;20000;-72
2022/08/10 04:41:57;;;;;;;23.27;9.18;;;20.60;99.90;;;;;;5971264;24;20064;-76
2022/08/10 04:44:23;;;;;;;24.17;10.25;;;20.70;99.90;;;;;;5972368;24;20460;-74
2022/08/10 04:46:49;;;;;;;28.02;10.32;;;20.50;99.90;;;;;;5972308;24;20006;-72
2022/08/10 04:49:15;;;;;;;20.02;9.63;;;20.50;99.90;;;;;;5975272;24;20117;-72
2022/08/10 04:51:41;;;;;;;18.73;8.50;;;20.40;99.90;;;;;;5971875;24;20565;-72
2022/08/10 04:54:07;;;;;;;28.33;9.88;;;20.70;99.90;;;;;;5971980;24;20635;-74
2022/08/10 04:56:37;;;;;;;21.98;9.25;;;20.50;99.90;;;;;;5969141;24;20485;-72
2022/08/10 04:59:05;;;;;;;24.48;10.77;;;20.40;99.90;;;;;;5970550;24;20624;-72
2022/08/10 05:01:31;;;;;;;21.15;8.85;;;;;;;;;;5972271;24;20000;-73
2022/08/10 05:03:57;;;;;;;25.90;9.30;;;;;;;;;;5972989;24;20075;-73
2022/08/10 05:06:23;;;;;;;26.00;11.05;;;20.60;99.90;;;;;;5970561;24;20082;-72
2022/08/10 05:08:49;;;;;;;23.85;9.32;;;20.50;99.90;;;;;;5946069;24;20042;-73
2022/08/10 05:11:15;;;;;;;25.63;9.32;;;20.50;99.90;;;;;;5971314;24;20012;-72
2022/08/10 05:13:41;;;;;;;25.77;9.60;;;20.60;99.90;;;;;;5973502;24;20058;-72
2022/08/10 05:16:07;;;;;;;21.55;9.55;;;20.90;99.90;;;;;;5974335;24;20140;-75
2022/08/10 05:18:33;;;;;;;22.88;9.27;;;20.70;99.90;;;;;;5974159;24;20631;-73
2022/08/10 05:20:58;;;;;;;23.50;9.73;;;20.80;99.90;;;;;;5974389;24;20012;-73
2022/08/10 05:23:24;;;;;;;22.02;9.27;;;;;;;;;;5951368;23;20035;-73
2022/08/10 05:25:50;;;;;;;23.30;9.82;;;20.90;99.90;;;;;;5973390;24;20016;-74
2022/08/10 05:28:16;;;;;;;26.95;9.93;;;20.90;99.90;;;;;;5973612;24;20048;-72
2022/08/10 05:30:42;;;;;;;24.27;10.10;;;21.40;99.90;;;;;;5969870;24;20003;-74
2022/08/10 05:33:08;;;;;;;22.83;11.52;;;21.10;99.90;;;;;;5971694;24;20039;-76
2022/08/10 05:35:34;;;;;;;26.60;11.02;;;20.90;99.90;;;;;;5972787;23;20071;-75
2022/08/10 05:38:01;;;;;;;23.30;8.80;;;20.90;99.90;;;;;;5971851;24;20000;-73
2022/08/10 05:40:27;;;;;;;21.33;9.00;;;20.80;99.90;;;;;;5972872;24;20071;-73
2022/08/10 05:42:54;;;;;;;29.55;11.98;;;21.10;99.90;;;;;;5973517;24;20282;-86
2022/08/10 05:45:23;;;;;;;23.83;10.15;;;20.80;99.90;;;;;;5971973;24;20004;-77
2022/08/10 05:47:50;;;;;;;32.30;11.75;;;21.00;99.90;;;;;;5970237;24;20032;-72
2022/08/10 05:50:18;;;;;;;27.15;12.52;;;20.90;99.90;;;;;;5971124;24;20000;-73
2022/08/10 05:52:44;;;;;;;29.17;10.95;;;21.00;99.90;;;;;;5973089;24;20068;-72
2022/08/10 05:55:10;;;;;;;25.45;10.35;;;21.00;99.90;;;;;;5974061;24;20008;-82
2022/08/10 05:57:36;;;;;;;21.73;9.00;;;21.20;99.90;;;;;;5971887;24;20012;-73
2022/08/10 06:00:07;;;;;;;26.17;10.38;;;21.30;99.90;;;;;;5969949;24;20639;-73
2022/08/10 06:02:37;;;;;;;30.27;12.15;;;22.20;99.90;;;;;;5970758;24;20012;-72
2022/08/10 06:05:22;;;;;;;22.98;10.02;;;21.50;99.90;;;;;;5970806;24;20015;-76
2022/08/10 06:07:59;;;;;;;25.13;10.60;;;21.50;99.90;;;;;;5970549;23;20012;-73
2022/08/10 06:10:28;;;;;;;21.75;9.95;;;22.00;99.90;;;;;;5967709;24;20076;-72
2022/08/10 06:15:42;;;;;;;27.90;10.73;;;21.70;99.90;;;;;;5970002;24;20208;-76
2022/08/10 06:18:08;;;;;;;22.45;9.93;;;21.60;99.90;;;;;;5966976;23;20315;-73
2022/08/10 06:20:35;;;;;;;22.20;10.38;;;21.60;99.90;;;;;;5966447;23;20004;-73
2022/08/10 06:23:03;;;;;;;22.70;10.23;;;21.90;99.90;;;;;;5964833;23;20031;-73
2022/08/10 06:25:49;;;;;;;21.45;9.50;;;22.00;99.90;;;;;;5965830;24;20016;-79
2022/08/10 06:28:18;;;;;;;21.33;9.38;;;22.70;99.90;;;;;;5964287;24;20020;-72
2022/08/10 06:30:50;;;;;;;23.73;9.52;;;22.70;99.90;;;;;;5965787;24;20110;-72
2022/08/10 06:33:21;;;;;;;22.25;10.50;;;21.60;99.90;;;;;;5941475;24;20580;-72
2022/08/10 06:35:51;;;;;;;24.38;10.68;;;22.70;99.90;;;;;;5965021;23;20012;-73
2022/08/10 06:38:17;;;;;;;23.70;10.15;;;22.80;99.90;;;;;;5966887;24;20088;-74
2022/08/10 06:40:46;;;;;;;22.90;11.13;;;22.80;99.90;;;;;;5967001;24;20068;-73
2022/08/10 06:43:15;;;;;;;24.25;10.52;;;23.20;99.90;;;;;;5966495;24;20043;-76
2022/08/10 06:45:54;;;;;;;25.17;10.05;;;23.00;99.90;;;;;;5964898;24;20071;-73
2022/08/10 06:48:27;;;;;;;23.45;10.82;;;22.70;99.90;;;;;;5964939;24;20008;-77
2022/08/10 06:50:57;;;;;;;;;;;19.50;99.90;;;;;;5965150;24;19996;-75
2022/08/10 06:53:31;;;;;;;24.50;10.38;;;26.20;99.90;;;;;;5964600;24;19906;-78
2022/08/10 06:56:17;;;;;;;24.73;11.20;;;22.50;99.90;;;;;;5940462;24;20008;-76
2022/08/10 06:58:57;;;;;;;24.25;11.57;;;23.00;99.90;;;;;;5940798;24;20068;-80
2022/08/10 07:01:33;;;;;;;24.27;10.63;;;23.10;99.90;;;;;;5967813;24;20014;-73
2022/08/10 07:04:07;;;;;;;23.35;9.45;;;23.10;99.90;;;;;;5943532;24;20016;-74
2022/08/10 07:06:37;;;;;;;22.23;10.15;;;22.80;99.90;;;;;;5968784;24;20015;-76
2022/08/10 07:09:04;;;;;;;20.73;9.90;;;23.30;99.90;;;;;;5968157;24;20060;-72
2022/08/10 07:11:30;;;;;;;28.15;10.73;;;23.30;99.90;;;;;;5965737;24;20628;-72
2022/08/10 07:13:59;;;;;;;21.58;9.85;;;23.20;99.90;;;;;;5966005;24;20019;-73
2022/08/10 07:16:27;;;;;;;20.55;8.02;;;23.30;99.90;;;;;;5966560;24;20000;-82
2022/08/10 07:18:58;;;;;;;24.63;10.25;;;23.20;99.90;;;;;;5966225;24;20016;-77
2022/08/10 07:21:33;;;;;;;22.13;8.40;;;23.00;99.90;;;;;;5965694;24;20004;-75
2022/08/10 07:24:00;;;;;;;20.80;8.75;;;23.10;99.90;;;;;;5966041;23;20016;-73
2022/08/10 07:26:29;;;;;;;20.42;8.77;;;23.20;99.90;;;;;;5965961;24;20015;-73
2022/08/10 07:28:55;;;;;;;20.60;9.70;;;23.30;99.90;;;;;;5966222;24;20015;-78
2022/08/10 07:31:22;;;;;;;23.48;9.13;;;23.40;99.90;;;;;;5966345;24;20005;-83
2022/08/10 07:33:54;;;;;;;24.42;9.38;;;23.40;99.90;;;;;;5968737;24;20039;-73
2022/08/10 07:36:22;;;;;;;22.80;9.65;;;23.50;99.90;;;;;;5968108;23;20439;-74
2022/08/10 07:38:50;;;;;;;20.90;9.98;;;23.50;99.90;;;;;;5969065;24;20075;-79
2022/08/10 07:41:18;;;;;;;21.30;9.30;;;23.50;99.90;;;;;;5969236;24;20064;-73
2022/08/10 07:43:46;;;;;;;20.88;9.88;;;23.50;99.90;;;;;;5966694;24;20009;-76
2022/08/10 07:46:14;;;;;;;24.58;10.05;;;23.60;99.90;;;;;;5966744;24;20028;-73
2022/08/10 07:48:45;;;;;;;20.25;9.23;;;23.60;99.90;;;;;;5969000;24;20367;-73
2022/08/10 07:51:12;;;;;;;24.50;10.07;;;23.70;99.90;;;;;;5966708;24;20449;-75
2022/08/10 07:53:44;;;;;;;21.80;11.35;;;23.70;99.90;;;;;;5966435;24;20000;-74
2022/08/10 07:56:11;;;;;;;25.88;10.93;;;23.50;99.90;;;;;;5965641;24;20061;-74
2022/08/10 07:58:50;;;;;;;20.35;9.45;;;23.50;99.90;;;;;;5942060;24;20534;-76
2022/08/10 08:01:19;;;;;;;18.92;9.57;;;23.40;99.90;;;;;;5965507;24;20004;-74
2022/08/10 08:03:46;;;;;;;22.60;10.73;;;23.80;99.90;;;;;;5943166;24;20080;-81
2022/08/10 08:06:12;;;;;;;19.60;9.40;;;23.90;99.90;;;;;;5968602;24;20016;-80
2022/08/10 08:08:41;;;;;;;22.40;10.82;;;23.60;99.90;;;;;;5945304;24;20095;-80
2022/08/10 08:11:07;;;;;;;18.65;9.15;;;23.50;99.90;;;;;;5968993;24;20000;-75
2022/08/10 08:13:34;;;;;;;19.15;10.23;;;23.50;99.90;;;;;;5969158;24;20064;-75
2022/08/10 08:16:03;;;;;;;23.90;9.40;;;23.80;99.90;;;;;;5965904;24;19996;-79
2022/08/10 08:18:31;;;;;;;21.10;9.63;;;23.50;99.90;;;;;;5966662;24;20640;-75
2022/08/10 08:20:57;;;;;;;22.27;10.55;;;23.50;99.90;;;;;;5967515;24;20007;-80
2022/08/10 08:23:24;;;;;;;23.88;11.45;;;24.70;99.90;;;;;;5966908;23;20099;-74
2022/08/10 08:25:51;;;;;;;21.00;10.27;;;24.20;99.90;;;;;;5968753;24;20008;-78
2022/08/10 08:28:17;;;;;;;18.70;9.27;;;23.40;99.90;;;;;;5969686;24;20015;-75
2022/08/10 08:31:06;;;;;;;21.02;9.77;;;23.80;99.90;;;;;;5969033;24;20458;-77
2022/08/10 08:33:35;;;;;;;21.42;10.48;;;26.80;99.90;;;;;;5967503;24;20011;-74
2022/08/10 08:36:19;;;;;;;23.33;10.88;;;23.40;99.90;;;;;;5943760;24;20019;-77
2022/08/10 08:38:47;;;;;;;23.13;10.75;;;23.40;99.90;;;;;;5942948;24;20004;-73
2022/08/10 08:41:31;;;;;;;23.20;9.43;;;23.20;99.90;;;;;;5966341;24;20087;-76
2022/08/10 08:44:37;;;;;;;23.20;9.95;;;23.60;99.90;;;;;;5966041;24;20574;-74
2022/08/10 08:47:50;;;;;;;21.38;9.63;;;23.10;99.90;;;;;;5966642;24;20027;-75
2022/08/10 08:50:53;;;;;;;19.75;9.65;;;26.00;99.90;;;;;;5956523;23;20012;-76
2022/08/10 08:53:50;;;;;;;17.92;8.65;;;22.90;99.90;;;;;;5967837;24;20603;-77
2022/08/10 08:56:28;;;;;;;23.52;9.80;;;22.90;99.90;;;;;;5968343;24;20015;-79
2022/08/10 08:59:07;;;;;;;21.42;9.68;;;23.00;99.90;;;;;;5967129;24;20095;-76
2022/08/10 09:01:54;;;;;;;21.77;9.98;;;22.90;99.90;;;;;;5966684;24;20116;-76
2022/08/10 09:04:41;;;;;;;20.33;10.07;;;23.30;99.90;;;;;;5966932;24;20012;-77
2022/08/10 09:07:25;;;;;;;18.92;9.35;;;23.00;99.90;;;;;;5944040;24;20016;-75
2022/08/10 09:10:00;;;;;;;19.90;9.32;;;23.00;99.90;;;;;;5966647;24;19996;-77
2022/08/10 09:13:05;;;;;;;22.05;9.95;;;22.90;99.90;;;;;;5966521;24;20012;-78
2022/08/10 09:15:52;;;;;;;27.15;10.23;;;22.60;99.90;;;;;;5965851;24;20008;-75
2022/08/10 09:18:35;;;;;;;23.73;9.23;;;22.80;99.90;;;;;;5940746;24;20008;-74
2022/08/10 09:21:27;;;;;;;21.60;8.98;;;22.80;99.90;;;;;;5965787;24;20008;-76
2022/08/10 09:24:26;;;;;;;19.80;8.35;;;22.90;99.90;;;;;;5965596;24;20050;-77
2022/08/10 09:26:55;;;;;;;21.48;9.27;;;23.10;99.90;;;;;;5965252;24;20005;-79
2022/08/10 09:29:35;;;;;;;23.13;9.48;;;23.30;99.90;;;;;;5965806;24;20300;-77
2022/08/10 09:32:09;;;;;;;18.85;8.98;;;23.50;99.90;;;;;;5966396;24;20015;-76
2022/08/10 09:35:02;;;;;;;20.77;11.43;;;23.40;99.90;;;;;;5941620;24;20380;-77
2022/08/10 09:38:01;;;;;;;21.35;9.15;;;23.50;99.90;;;;;;5966224;23;20063;-77
2022/08/10 09:40:37;;;;;;;21.10;8.85;;;23.70;99.90;;;;;;5964261;24;20499;-82
2022/08/10 09:43:18;;;;;;;18.98;9.70;;;24.00;99.90;;;;;;5965966;24;20045;-80
2022/08/10 09:46:05;;;;;;;20.80;9.57;;;23.60;99.90;;;;;;5966002;24;20075;-75
2022/08/10 09:49:15;;;;;;;25.73;9.77;;;23.70;99.90;;;;;;5963525;24;20620;-76
2022/08/10 09:52:25;;;;;;;24.92;9.18;;;23.70;99.90;;;;;;5965089;24;20032;-75
2022/08/10 09:55:15;;;;;;;20.00;9.75;;;23.70;99.90;;;;;;5965768;24;20020;-78
2022/08/10 09:58:22;;;;;;;21.13;9.13;;;23.80;99.90;;;;;;5967352;24;20722;-77
2022/08/10 10:01:09;;;;;;;16.27;8.32;;;23.60;99.90;;;;;;5831543;24;20022;-80
2022/08/10 10:03:45;;;;;;;16.48;8.60;;;23.60;99.90;;;;;;5852602;24;20017;-84
2022/08/10 10:06:17;;;;;;;14.93;8.02;;;23.60;99.90;;;;;;5853018;24;20260;-76
2022/08/10 10:09:10;;;;;;;21.38;9.27;;;23.70;99.90;;;;;;5852691;24;20206;-76
2022/08/10 10:12:05;;;;;;;20.23;9.93;;;24.00;99.90;;;;;;5854740;24;20014;-76
2022/08/10 10:15:19;;;;;;;21.20;9.30;;;22.30;99.90;;;;;;5853151;24;20839;-76
2022/08/10 10:17:46;;;;;;;20.92;10.35;;;23.60;99.90;;;;;;5855047;24;20072;-76
2022/08/10 10:20:40;;;;;;;22.08;8.93;;;23.50;99.90;;;;;;5855590;24;20013;-75
2022/08/10 10:23:41;;;;;;;21.25;9.32;;;23.50;99.90;;;;;;5855104;24;20195;-76
2022/08/10 10:26:18;;;;;;;18.10;8.68;;;23.60;99.90;;;;;;5844034;24;20018;-76
2022/08/10 10:29:05;;;;;;;20.30;10.73;;;23.50;99.90;;;;;;5854546;24;20014;-75
2022/08/10 10:31:56;;;;;;;22.85;10.30;;;23.60;99.90;;;;;;5855997;24;20006;-75
2022/08/10 10:34:37;;;;;;;15.45;8.65;;;23.60;99.90;;;;;;5803097;24;20050;-75
2022/08/10 10:37:09;;;;;;;19.55;9.15;;;22.10;99.90;;;;;;5824736;24;20032;-75
2022/08/10 10:39:41;;;;;;;21.17;10.25;;;23.80;99.90;;;;;;5882174;24;20021;-77
2022/08/10 10:42:36;;;;;;;18.50;9.17;;;23.90;99.90;;;;;;5881711;24;20705;-78
2022/08/10 10:45:33;;;;;;;20.17;9.50;;;24.00;99.90;;;;;;5882872;24;20014;-80
2022/08/10 10:48:56;;;;;;;;;;;;;;;;;;;;;
2022/08/10 10:51:52;;;;;;;18.10;9.67;;;25.90;99.90;;;;;;5882451;24;20020;-78
2022/08/10 10:54:31;;;;;;;15.68;7.93;;;20.90;99.00;;;;;;5855720;24;20049;-80
2022/08/10 10:57:21;;;;;;;18.23;9.32;;;24.20;99.20;;;;;;5882356;24;20010;-84
2022/08/10 11:00:10;;;;;;;24.95;9.63;;;24.30;99.40;;;;;;5881780;24;20146;-79
2022/08/10 11:03:11;;;;;;;18.42;8.90;;;23.60;99.30;;;;;;5880997;24;20025;-78
2022/08/10 11:06:08;;;;;;;15.82;7.75;;;24.40;99.00;;;;;;5881382;24;20006;-77
2022/08/10 11:08:39;;;;;;;18.75;8.57;;;24.50;98.60;;;;;;5881462;24;20009;-77
2022/08/10 11:11:42;;;;;;;19.58;8.75;;;24.60;98.20;;;;;;5910035;24;20012;-78
2022/08/10 11:14:17;;;;;;;16.02;8.23;;;24.70;98.20;;;;;;5854209;24;20097;-81
2022/08/10 11:16:54;;;;;;;18.30;9.35;;;25.40;97.30;;;;;;5854963;24;20159;-75
2022/08/10 11:19:43;;;;;;;16.35;8.95;;;25.30;96.90;;;;;;5854558;24;20025;-77
2022/08/10 11:22:38;;;;;;;19.50;8.45;;;27.20;97.80;;;;;;5854221;24;20018;-75
2022/08/10 11:25:31;;;;;;;17.42;7.97;;;25.60;96.50;;;;;;5831550;24;20040;-83
2022/08/10 11:28:17;;;;;;;21.85;8.95;;;25.90;95.80;;;;;;5854223;24;20175;-77
2022/08/10 11:31:08;;;;;;;21.63;11.05;;;26.20;95.30;;;;;;5854037;24;20650;-76
2022/08/10 11:33:45;;;;;;;30.25;13.13;;;26.40;95.20;;;;;;5800746;24;20176;-75
2022/08/10 11:36:17;;;;;;;23.15;10.18;;;27.10;94.90;;;;;;5800696;24;20011;-76
2022/08/10 11:39:21;;;;;;;18.05;8.68;;;27.10;94.60;;;;;;5800696;24;20019;-75
2022/08/10 11:41:59;;;;;;;19.20;8.85;;;27.50;94.10;;;;;;5773853;24;20159;-77
2022/08/10 11:44:28;;;;;;;15.75;7.47;;;27.50;93.70;;;;;;5774251;24;20020;-76
2022/08/10 11:47:19;;;;;;;19.98;9.18;;;27.90;93.20;;;;;;5774317;24;20433;-74
2022/08/10 11:49:57;;;;;;;20.67;8.80;;;27.60;92.70;;;;;;5800435;24;20015;-74
2022/08/10 11:52:47;;;;;;;14.75;7.35;;;28.80;92.80;;;;;;5799817;24;20101;-76
2022/08/10 11:55:22;;;;;;;17.33;8.05;;;27.30;91.90;;;;;;5799601;24;20046;-86
2022/08/10 11:57:51;;;;;;;15.63;7.72;;;27.30;91.40;;;;;;5799875;24;20021;-80
2022/08/10 12:00:22;;;;;;;15.80;7.35;;;27.20;91.70;;;;;;5801736;24;20519;-78
2022/08/10 12:02:55;;;;;;;14.95;6.95;;;27.30;90.90;;;;;;5802119;24;20015;-79
2022/08/10 12:05:29;;;;;;;14.75;6.20;;;27.20;91.20;;;;;;5801133;24;20022;-78
2022/08/10 12:07:58;;;;;;;14.90;8.05;;;30.40;92.00;;;;;;5801197;24;20014;-78
2022/08/10 12:10:25;;;;;;;13.90;7.03;;;27.30;90.70;;;;;;5833840;24;20006;-83
2022/08/10 12:12:52;;;;;;;14.02;6.00;;;;;;;;;;5859239;24;20143;-77
2022/08/10 12:15:45;;;;;;;17.17;7.90;;;27.80;89.40;;;;;;5881870;24;20012;-78
2022/08/10 12:18:22;;;;;;;16.23;6.80;;;28.00;90.20;;;;;;5897033;24;20231;-79
2022/08/10 12:20:57;;;;;;;12.27;6.60;;;28.10;89.10;;;;;;5946791;24;20095;-77
2022/08/10 12:23:46;;;;;;;15.25;7.95;;;28.50;86.70;;;;;;5946887;23;20102;-82
2022/08/10 12:26:24;;;;;;;14.60;6.30;;;29.20;85.30;;;;;;5989698;23;20435;-79
2022/08/10 12:29:05;;;;;;;12.30;6.00;;;30.00;82.40;;;;;;5989193;23;20012;-82
2022/08/10 12:32:09;;;;;;;11.98;6.35;;;30.90;80.10;;;;;;5965092;24;20520;-78
2022/08/10 12:34:43;;;;;;;15.18;6.75;;;31.40;75.10;;;;;;5957450;24;20012;-82
2022/08/10 12:37:13;;;;;;;12.65;6.10;;;32.30;74.80;;;;;;5965793;23;20008;-77
2022/08/10 12:40:07;;;;;;;13.63;6.38;;;31.00;72.00;;;;;;5965143;24;20000;-78
2022/08/10 12:42:48;;;;;;;13.20;6.32;;;32.80;72.60;;;;;;5964243;24;20019;-78
2022/08/10 12:45:33;;;;;;;13.88;6.93;;;26.70;72.40;;;;;;5965540;24;20075;-83
2022/08/10 12:48:23;;;;;;;14.80;6.97;;;30.30;75.30;;;;;;5988431;23;20013;-78
2022/08/10 12:50:56;;;;;;;13.48;6.70;;;29.90;75.50;;;;;;5966723;23;20008;-78
2022/08/10 12:53:44;;;;;;;12.13;6.72;;;29.40;76.10;;;;;;5990890;23;20016;-77
2022/08/10 12:56:32;;;;;;;15.10;7.82;;;26.20;75.20;;;;;;5968176;24;20499;-77
2022/08/10 12:58:59;;;;;;;14.13;7.43;;;29.20;79.40;;;;;;5936193;24;20013;-77
2022/08/10 13:01:38;;;;;;;17.75;8.18;;;29.80;79.30;;;;;;5936098;24;20588;-78
2022/08/10 13:04:08;;;;;;;15.35;7.75;;;30.40;77.00;;;;;;5934971;24;20099;-76
2022/08/10 13:06:40;;;;;;;15.90;7.13;;;31.30;75.00;;;;;;5935801;24;20051;-76
2022/08/10 13:09:12;;;;;;;12.75;6.55;;;32.40;72.20;;;;;;5934806;24;20063;-77
2022/08/10 13:11:48;;;;;;;13.40;7.18;;;32.50;68.90;;;;;;5934886;24;20020;-78
2022/08/10 13:14:27;;;;;;;15.60;7.82;;;31.50;67.10;;;;;;5935377;24;20022;-85
2022/08/10 13:16:59;;;;;;;11.50;6.10;;;32.60;67.00;;;;;;5934905;24;20041;-77
2022/08/10 13:19:32;;;;;;;11.88;5.82;;;31.70;68.60;;;;;;5934651;24;20015;-79